sensor_id;sensor_type;location;lat;lon;timestamp;temperature;humidity
15483;DHT22;7843;50.330;7.312;2023-05-10T00:00:55;12.60;99.90
15483;DHT22;7843;50.330;7.312;2023-05-10T00:03:21;12.60;99.90
15483;DHT22;7843;50.330;7.312;2023-05-10T00:05:48;12.60;99.90
15483;DHT22;7843;50.330;7.312;2023-05-10T00:08:15;12.60;99.90
15483;DHT22;7843;50.330;7.312;2023-05-10T00:10:41;12.50;99.90
15483;DHT22;7843;50.330;7.312;2023-05-10T00:13:08;12.50;99.90
15483;DHT22;7843;50.330;7.312;2023-05-10T00:15:35;12.50;99.90
15483;DHT22;7843;50.330;7.312;2023-05-10T00:18:02;12.50;99.90
15483;DHT22;7843;50.330;7.312;2023-05-10T00:20:28;12.50;99.90
15483;DHT22;7843;50.330;7.312;2023-05-10T00:22:55;12.50;99.90
15483;DHT22;7843;50.330;7.312;2023-05-10T00:25:22;12.60;99.90
15483;DHT22;7843;50.330;7.312;2023-05-10T00:27:48;12.60;99.90
15483;DHT22;7843;50.330;7.312;2023-05-10T00:30:16;12.60;99.90
15483;DHT22;7843;50.330;7.312;2023-05-10T00:32:43;12.60;99.90
15483;DHT22;7843;50.330;7.312;2023-05-10T00:35:10;12.50;99.90
15483;DHT22;7843;50.330;7.312;2023-05-10T00:37:37;12.50;99.90
15483;DHT22;7843;50.330;7.312;2023-05-10T00:40:04;12.50;99.90
15483;DHT22;7843;50.330;7.312;2023-05-10T00:42:31;12.40;99.90
15483;DHT22;7843;50.330;7.312;2023-05-10T00:44:58;12.40;99.90
15483;DHT22;7843;50.330;7.312;2023-05-10T00:47:24;12.40;99.90
15483;DHT22;7843;50.330;7.312;2023-05-10T00:49:51;12.40;99.90
15483;DHT22;7843;50.330;7.312;2023-05-10T00:52:18;12.50;99.90
15483;DHT22;7843;50.330;7.312;2023-05-10T00:54:46;12.50;99.90
15483;DHT22;7843;50.330;7.312;2023-05-10T00:57:13;12.40;99.90
15483;DHT22;7843;50.330;7.312;2023-05-10T00:59:39;12.40;99.90
15483;DHT22;7843;50.330;7.312;2023-05-10T01:02:06;12.40;99.90
15483;DHT22;7843;50.330;7.312;2023-05-10T01:04:33;12.40;99.90
15483;DHT22;7843;50.330;7.312;2023-05-10T01:07:01;12.40;99.90
15483;DHT22;7843;50.330;7.312;2023-05-10T01:09:28;12.40;99.90
15483;DHT22;7843;50.330;7.312;2023-05-10T01:11:55;12.40;99.90
15483;DHT22;7843;50.330;7.312;2023-05-10T01:14:23;12.40;99.90
15483;DHT22;7843;50.330;7.312;2023-05-10T01:16:50;12.40;99.90
15483;DHT22;7843;50.330;7.312;2023-05-10T01:19:24;12.40;99.90
15483;DHT22;7843;50.330;7.312;2023-05-10T01:22:11;12.50;99.90
15483;DHT22;7843;50.330;7.312;2023-05-10T01:33:38;12.50;99.90
15483;DHT22;7843;50.330;7.312;2023-05-10T01:36:30;12.40;99.90
15483;DHT22;7843;50.330;7.312;2023-05-10T01:38:59;12.40;99.90
15483;DHT22;7843;50.330;7.312;2023-05-10T01:44:37;12.40;99.90
15483;DHT22;7843;50.330;7.312;2023-05-10T01:47:34;12.40;99.90
15483;DHT22;7843;50.330;7.312;2023-05-10T01:50:04;12.40;99.90
15483;DHT22;7843;50.330;7.312;2023-05-10T01:52:36;12.50;99.90
15483;DHT22;7843;50.330;7.312;2023-05-10T01:55:09;12.50;99.90
15483;DHT22;7843;50.330;7.312;2023-05-10T01:57:39;12.50;99.90
15483;DHT22;7843;50.330;7.312;2023-05-10T02:00:07;12.50;99.90
15483;DHT22;7843;50.330;7.312;2023-05-10T02:02:39;12.50;99.90
15483;DHT22;7843;50.330;7.312;2023-05-10T02:05:06;12.50;99.90
15483;DHT22;7843;50.330;7.312;2023-05-10T02:07:35;12.50;99.90
15483;DHT22;7843;50.330;7.312;2023-05-10T02:10:04;12.50;99.90
15483;DHT22;7843;50.330;7.312;2023-05-10T02:12:35;12.50;99.90
15483;DHT22;7843;50.330;7.312;2023-05-10T02:15:05;12.50;99.90
15483;DHT22;7843;50.330;7.312;2023-05-10T02:17:35;12.50;99.90
15483;DHT22;7843;50.330;7.312;2023-05-10T02:20:04;12.50;99.90
15483;DHT22;7843;50.330;7.312;2023-05-10T02:22:31;12.50;99.90
15483;DHT22;7843;50.330;7.312;2023-05-10T02:25:00;12.50;99.90
15483;DHT22;7843;50.330;7.312;2023-05-10T02:27:28;12.50;99.90
15483;DHT22;7843;50.330;7.312;2023-05-10T02:29:56;12.50;99.90
15483;DHT22;7843;50.330;7.312;2023-05-10T02:32:26;12.50;99.90
15483;DHT22;7843;50.330;7.312;2023-05-10T02:34:54;12.50;99.90
15483;DHT22;7843;50.330;7.312;2023-05-10T02:37:22;12.50;99.90
15483;DHT22;7843;50.330;7.312;2023-05-10T02:39:51;12.50;99.90
15483;DHT22;7843;50.330;7.312;2023-05-10T02:42:20;12.50;99.90
15483;DHT22;7843;50.330;7.312;2023-05-10T02:44:51;12.50;99.90
15483;DHT22;7843;50.330;7.312;2023-05-10T02:47:19;12.50;99.90
15483;DHT22;7843;50.330;7.312;2023-05-10T02:49:46;12.50;99.90
15483;DHT22;7843;50.330;7.312;2023-05-10T02:52:18;12.50;99.90
15483;DHT22;7843;50.330;7.312;2023-05-10T02:54:50;12.50;99.90
15483;DHT22;7843;50.330;7.312;2023-05-10T02:57:31;12.50;99.90
15483;DHT22;7843;50.330;7.312;2023-05-10T02:59:58;12.50;99.90
15483;DHT22;7843;50.330;7.312;2023-05-10T03:02:26;12.50;99.90
15483;DHT22;7843;50.330;7.312;2023-05-10T03:04:53;12.50;99.90
15483;DHT22;7843;50.330;7.312;2023-05-10T03:07:20;12.50;99.90
15483;DHT22;7843;50.330;7.312;2023-05-10T03:09:48;12.50;99.90
15483;DHT22;7843;50.330;7.312;2023-05-10T03:12:27;12.50;99.90
15483;DHT22;7843;50.330;7.312;2023-05-10T03:15:11;12.50;99.90
15483;DHT22;7843;50.330;7.312;2023-05-10T03:20:36;12.50;99.90
15483;DHT22;7843;50.330;7.312;2023-05-10T03:25:37;12.50;99.90
15483;DHT22;7843;50.330;7.312;2023-05-10T03:28:04;12.50;99.90
15483;DHT22;7843;50.330;7.312;2023-05-10T03:30:31;12.50;99.90
15483;DHT22;7843;50.330;7.312;2023-05-10T03:33:07;12.50;99.90
15483;DHT22;7843;50.330;7.312;2023-05-10T03:35:34;12.50;99.90
15483;DHT22;7843;50.330;7.312;2023-05-10T03:38:01;12.50;99.90
15483;DHT22;7843;50.330;7.312;2023-05-10T03:40:28;12.50;99.90
15483;DHT22;7843;50.330;7.312;2023-05-10T03:42:58;12.50;99.90
15483;DHT22;7843;50.330;7.312;2023-05-10T03:45:26;12.50;99.90
15483;DHT22;7843;50.330;7.312;2023-05-10T03:47:53;12.50;99.90
15483;DHT22;7843;50.330;7.312;2023-05-10T03:50:20;12.60;99.90
15483;DHT22;7843;50.330;7.312;2023-05-10T03:52:47;12.60;99.90
15483;DHT22;7843;50.330;7.312;2023-05-10T03:55:14;12.50;99.90
15483;DHT22;7843;50.330;7.312;2023-05-10T03:57:41;12.60;99.90
15483;DHT22;7843;50.330;7.312;2023-05-10T04:00:08;12.50;99.90
15483;DHT22;7843;50.330;7.312;2023-05-10T04:02:36;12.60;99.90
15483;DHT22;7843;50.330;7.312;2023-05-10T04:05:03;12.60;99.90
15483;DHT22;7843;50.330;7.312;2023-05-10T04:07:30;12.60;99.90
15483;DHT22;7843;50.330;7.312;2023-05-10T04:09:56;12.60;99.90
15483;DHT22;7843;50.330;7.312;2023-05-10T04:12:24;12.60;99.90
15483;DHT22;7843;50.330;7.312;2023-05-10T04:14:50;12.60;99.90
15483;DHT22;7843;50.330;7.312;2023-05-10T04:17:17;12.60;99.90
15483;DHT22;7843;50.330;7.312;2023-05-10T04:19:44;12.60;99.90
15483;DHT22;7843;50.330;7.312;2023-05-10T04:22:11;12.60;99.90
15483;DHT22;7843;50.330;7.312;2023-05-10T04:24:37;12.60;99.90
15483;DHT22;7843;50.330;7.312;2023-05-10T04:27:04;12.60;99.90
15483;DHT22;7843;50.330;7.312;2023-05-10T04:29:31;12.50;99.90
15483;DHT22;7843;50.330;7.312;2023-05-10T04:31:57;12.60;99.90
15483;DHT22;7843;50.330;7.312;2023-05-10T04:34:25;12.60;99.90
15483;DHT22;7843;50.330;7.312;2023-05-10T04:36:51;12.60;99.90
15483;DHT22;7843;50.330;7.312;2023-05-10T04:39:18;12.70;99.90
15483;DHT22;7843;50.330;7.312;2023-05-10T04:41:45;12.70;99.90
15483;DHT22;7843;50.330;7.312;2023-05-10T04:44:12;12.70;99.90
15483;DHT22;7843;50.330;7.312;2023-05-10T04:46:38;12.70;99.90
15483;DHT22;7843;50.330;7.312;2023-05-10T04:49:05;12.70;99.90
15483;DHT22;7843;50.330;7.312;2023-05-10T04:51:32;12.70;99.90
15483;DHT22;7843;50.330;7.312;2023-05-10T04:53:59;12.70;99.90
15483;DHT22;7843;50.330;7.312;2023-05-10T04:56:30;12.70;99.90
15483;DHT22;7843;50.330;7.312;2023-05-10T04:58:57;12.70;99.90
15483;DHT22;7843;50.330;7.312;2023-05-10T05:01:24;12.70;99.90
15483;DHT22;7843;50.330;7.312;2023-05-10T05:03:50;12.80;99.90
15483;DHT22;7843;50.330;7.312;2023-05-10T05:06:19;12.80;99.90
15483;DHT22;7843;50.330;7.312;2023-05-10T05:08:47;12.80;99.90
15483;DHT22;7843;50.330;7.312;2023-05-10T05:11:16;12.80;99.90
15483;DHT22;7843;50.330;7.312;2023-05-10T05:13:43;12.70;99.90
15483;DHT22;7843;50.330;7.312;2023-05-10T05:16:10;12.80;99.90
15483;DHT22;7843;50.330;7.312;2023-05-10T05:18:37;12.70;99.90
15483;DHT22;7843;50.330;7.312;2023-05-10T05:21:17;12.80;99.90
15483;DHT22;7843;50.330;7.312;2023-05-10T05:23:44;12.90;99.90
15483;DHT22;7843;50.330;7.312;2023-05-10T05:26:11;12.90;99.90
15483;DHT22;7843;50.330;7.312;2023-05-10T05:28:38;12.90;99.90
15483;DHT22;7843;50.330;7.312;2023-05-10T05:31:05;12.90;99.90
15483;DHT22;7843;50.330;7.312;2023-05-10T05:33:34;12.90;99.90
15483;DHT22;7843;50.330;7.312;2023-05-10T05:36:02;13.00;99.90
15483;DHT22;7843;50.330;7.312;2023-05-10T05:38:28;13.10;99.90
15483;DHT22;7843;50.330;7.312;2023-05-10T05:40:55;13.10;99.90
15483;DHT22;7843;50.330;7.312;2023-05-10T05:43:22;13.10;99.90
15483;DHT22;7843;50.330;7.312;2023-05-10T05:45:49;13.10;99.90
15483;DHT22;7843;50.330;7.312;2023-05-10T05:48:15;13.20;99.90
15483;DHT22;7843;50.330;7.312;2023-05-10T05:50:42;13.20;99.90
15483;DHT22;7843;50.330;7.312;2023-05-10T05:53:09;13.20;99.90
15483;DHT22;7843;50.330;7.312;2023-05-10T05:55:35;13.20;99.90
15483;DHT22;7843;50.330;7.312;2023-05-10T05:58:02;13.10;99.90
15483;DHT22;7843;50.330;7.312;2023-05-10T06:00:29;13.00;99.90
15483;DHT22;7843;50.330;7.312;2023-05-10T06:02:56;13.20;99.90
15483;DHT22;7843;50.330;7.312;2023-05-10T06:05:23;13.20;99.90
15483;DHT22;7843;50.330;7.312;2023-05-10T06:07:50;13.20;99.90
15483;DHT22;7843;50.330;7.312;2023-05-10T06:10:16;13.30;99.90
15483;DHT22;7843;50.330;7.312;2023-05-10T06:12:43;13.40;99.90
15483;DHT22;7843;50.330;7.312;2023-05-10T06:15:10;13.30;99.90
15483;DHT22;7843;50.330;7.312;2023-05-10T06:17:37;13.40;99.90
15483;DHT22;7843;50.330;7.312;2023-05-10T06:20:05;13.40;99.90
15483;DHT22;7843;50.330;7.312;2023-05-10T06:22:32;13.40;99.90
15483;DHT22;7843;50.330;7.312;2023-05-10T06:24:59;13.40;99.90
15483;DHT22;7843;50.330;7.312;2023-05-10T06:27:25;13.30;99.90
15483;DHT22;7843;50.330;7.312;2023-05-10T06:29:52;13.40;99.90
15483;DHT22;7843;50.330;7.312;2023-05-10T06:32:22;13.40;99.90
15483;DHT22;7843;50.330;7.312;2023-05-10T06:34:48;13.40;99.90
15483;DHT22;7843;50.330;7.312;2023-05-10T06:37:15;13.40;99.90
15483;DHT22;7843;50.330;7.312;2023-05-10T06:39:42;13.40;99.90
15483;DHT22;7843;50.330;7.312;2023-05-10T06:42:08;13.40;99.90
15483;DHT22;7843;50.330;7.312;2023-05-10T06:44:35;13.50;99.90
15483;DHT22;7843;50.330;7.312;2023-05-10T06:47:02;13.60;99.90
15483;DHT22;7843;50.330;7.312;2023-05-10T06:49:29;13.60;99.90
15483;DHT22;7843;50.330;7.312;2023-05-10T06:51:56;13.70;99.90
15483;DHT22;7843;50.330;7.312;2023-05-10T06:54:22;13.70;99.90
15483;DHT22;7843;50.330;7.312;2023-05-10T06:56:49;13.70;99.90
15483;DHT22;7843;50.330;7.312;2023-05-10T06:59:16;13.60;99.90
15483;DHT22;7843;50.330;7.312;2023-05-10T07:01:43;13.70;99.90
15483;DHT22;7843;50.330;7.312;2023-05-10T07:04:10;13.70;99.90
15483;DHT22;7843;50.330;7.312;2023-05-10T07:06:36;13.70;99.90
15483;DHT22;7843;50.330;7.312;2023-05-10T07:09:03;13.80;99.90
15483;DHT22;7843;50.330;7.312;2023-05-10T07:11:30;13.80;99.90
15483;DHT22;7843;50.330;7.312;2023-05-10T07:13:57;13.90;99.90
15483;DHT22;7843;50.330;7.312;2023-05-10T07:16:23;13.90;99.90
15483;DHT22;7843;50.330;7.312;2023-05-10T07:18:50;13.90;99.90
15483;DHT22;7843;50.330;7.312;2023-05-10T07:21:17;13.90;99.90
15483;DHT22;7843;50.330;7.312;2023-05-10T07:23:43;13.90;99.90
15483;DHT22;7843;50.330;7.312;2023-05-10T07:26:10;13.90;99.90
15483;DHT22;7843;50.330;7.312;2023-05-10T07:28:38;13.90;99.90
15483;DHT22;7843;50.330;7.312;2023-05-10T07:31:05;14.00;99.90
15483;DHT22;7843;50.330;7.312;2023-05-10T07:33:32;14.00;99.90
15483;DHT22;7843;50.330;7.312;2023-05-10T07:35:59;14.00;99.90
15483;DHT22;7843;50.330;7.312;2023-05-10T07:38:26;14.10;99.90
15483;DHT22;7843;50.330;7.312;2023-05-10T07:40:52;14.10;99.90
15483;DHT22;7843;50.330;7.312;2023-05-10T07:43:19;14.20;99.90
15483;DHT22;7843;50.330;7.312;2023-05-10T07:45:46;14.30;99.90
15483;DHT22;7843;50.330;7.312;2023-05-10T07:48:13;14.50;99.90
15483;DHT22;7843;50.330;7.312;2023-05-10T07:50:39;14.60;99.90
15483;DHT22;7843;50.330;7.312;2023-05-10T07:53:06;14.70;99.90
15483;DHT22;7843;50.330;7.312;2023-05-10T07:55:33;14.80;99.90
15483;DHT22;7843;50.330;7.312;2023-05-10T07:58:00;14.90;99.90
15483;DHT22;7843;50.330;7.312;2023-05-10T08:00:30;14.90;99.90
15483;DHT22;7843;50.330;7.312;2023-05-10T08:02:57;15.00;99.90
15483;DHT22;7843;50.330;7.312;2023-05-10T08:05:23;15.00;99.90
15483;DHT22;7843;50.330;7.312;2023-05-10T08:07:50;15.00;99.90
15483;DHT22;7843;50.330;7.312;2023-05-10T08:10:17;15.10;99.90
15483;DHT22;7843;50.330;7.312;2023-05-10T08:12:44;15.20;99.90
15483;DHT22;7843;50.330;7.312;2023-05-10T08:15:11;15.20;99.90
15483;DHT22;7843;50.330;7.312;2023-05-10T08:17:37;15.30;99.90
15483;DHT22;7843;50.330;7.312;2023-05-10T08:20:05;15.30;99.90
15483;DHT22;7843;50.330;7.312;2023-05-10T08:22:32;15.30;99.90
15483;DHT22;7843;50.330;7.312;2023-05-10T08:24:58;15.30;99.90
15483;DHT22;7843;50.330;7.312;2023-05-10T08:27:25;15.20;99.90
15483;DHT22;7843;50.330;7.312;2023-05-10T08:29:52;15.20;99.90
15483;DHT22;7843;50.330;7.312;2023-05-10T08:32:18;15.20;99.90
15483;DHT22;7843;50.330;7.312;2023-05-10T08:34:45;15.20;99.90
15483;DHT22;7843;50.330;7.312;2023-05-10T08:37:12;15.10;99.90
15483;DHT22;7843;50.330;7.312;2023-05-10T08:39:39;15.10;99.90
15483;DHT22;7843;50.330;7.312;2023-05-10T08:42:06;15.10;99.90
15483;DHT22;7843;50.330;7.312;2023-05-10T08:44:35;15.10;99.90
15483;DHT22;7843;50.330;7.312;2023-05-10T08:47:05;15.10;99.90
15483;DHT22;7843;50.330;7.312;2023-05-10T08:49:33;15.20;99.90
15483;DHT22;7843;50.330;7.312;2023-05-10T08:52:03;15.20;99.90
15483;DHT22;7843;50.330;7.312;2023-05-10T08:54:32;15.10;99.80
15483;DHT22;7843;50.330;7.312;2023-05-10T08:56:59;15.10;99.90
15483;DHT22;7843;50.330;7.312;2023-05-10T08:59:27;15.10;99.90
15483;DHT22;7843;50.330;7.312;2023-05-10T09:01:54;15.20;99.90
15483;DHT22;7843;50.330;7.312;2023-05-10T09:04:22;15.20;99.90
15483;DHT22;7843;50.330;7.312;2023-05-10T09:06:49;15.40;99.90
15483;DHT22;7843;50.330;7.312;2023-05-10T09:09:16;15.30;99.00
15483;DHT22;7843;50.330;7.312;2023-05-10T09:11:43;15.40;99.90
15483;DHT22;7843;50.330;7.312;2023-05-10T09:14:12;15.40;99.20
15483;DHT22;7843;50.330;7.312;2023-05-10T09:16:40;15.40;98.40
15483;DHT22;7843;50.330;7.312;2023-05-10T09:19:07;15.50;99.90
15483;DHT22;7843;50.330;7.312;2023-05-10T09:21:38;15.60;98.20
15483;DHT22;7843;50.330;7.312;2023-05-10T09:24:06;15.70;99.30
15483;DHT22;7843;50.330;7.312;2023-05-10T09:26:33;15.70;99.90
15483;DHT22;7843;50.330;7.312;2023-05-10T09:29:00;15.70;99.90
15483;DHT22;7843;50.330;7.312;2023-05-10T09:31:49;15.80;99.90
15483;DHT22;7843;50.330;7.312;2023-05-10T09:34:28;15.80;99.90
15483;DHT22;7843;50.330;7.312;2023-05-10T09:37:00;15.70;99.30
15483;DHT22;7843;50.330;7.312;2023-05-10T09:39:35;15.70;99.90
15483;DHT22;7843;50.330;7.312;2023-05-10T09:42:08;15.70;99.70
15483;DHT22;7843;50.330;7.312;2023-05-10T09:44:36;15.80;98.20
15483;DHT22;7843;50.330;7.312;2023-05-10T09:47:03;15.80;97.00
15483;DHT22;7843;50.330;7.312;2023-05-10T09:49:30;15.80;97.30
15483;DHT22;7843;50.330;7.312;2023-05-10T09:52:05;15.60;97.00
15483;DHT22;7843;50.330;7.312;2023-05-10T09:54:33;15.50;98.30
15483;DHT22;7843;50.330;7.312;2023-05-10T09:57:00;15.40;99.60
15483;DHT22;7843;50.330;7.312;2023-05-10T09:59:28;15.50;99.90
15483;DHT22;7843;50.330;7.312;2023-05-10T10:01:59;15.60;99.90
15483;DHT22;7843;50.330;7.312;2023-05-10T10:04:26;15.90;99.00
15483;DHT22;7843;50.330;7.312;2023-05-10T10:07:03;16.10;96.40
15483;DHT22;7843;50.330;7.312;2023-05-10T10:09:31;16.20;97.50
15483;DHT22;7843;50.330;7.312;2023-05-10T10:12:00;16.50;96.10
15483;DHT22;7843;50.330;7.312;2023-05-10T10:14:26;16.90;97.30
15483;DHT22;7843;50.330;7.312;2023-05-10T10:16:53;17.40;94.90
15483;DHT22;7843;50.330;7.312;2023-05-10T10:19:25;17.60;93.30
15483;DHT22;7843;50.330;7.312;2023-05-10T10:21:52;18.00;92.80
15483;DHT22;7843;50.330;7.312;2023-05-10T10:24:19;18.30;89.10
15483;DHT22;7843;50.330;7.312;2023-05-10T10:26:46;18.40;91.30
15483;DHT22;7843;50.330;7.312;2023-05-10T10:29:30;18.20;89.60
15483;DHT22;7843;50.330;7.312;2023-05-10T10:32:25;18.10;91.40
15483;DHT22;7843;50.330;7.312;2023-05-10T10:34:54;18.00;91.70
15483;DHT22;7843;50.330;7.312;2023-05-10T10:37:21;18.10;92.80
15483;DHT22;7843;50.330;7.312;2023-05-10T10:39:48;18.00;89.30
15483;DHT22;7843;50.330;7.312;2023-05-10T10:42:43;17.90;91.80
15483;DHT22;7843;50.330;7.312;2023-05-10T10:45:13;17.90;89.20
15483;DHT22;7843;50.330;7.312;2023-05-10T10:47:40;18.10;92.20
15483;DHT22;7843;50.330;7.312;2023-05-10T10:50:09;18.20;89.60
15483;DHT22;7843;50.330;7.312;2023-05-10T10:55:13;18.30;91.20
15483;DHT22;7843;50.330;7.312;2023-05-10T11:00:39;18.50;87.10
15483;DHT22;7843;50.330;7.312;2023-05-10T11:03:09;18.40;86.00
15483;DHT22;7843;50.330;7.312;2023-05-10T11:10:38;18.30;86.60
15483;DHT22;7843;50.330;7.312;2023-05-10T11:13:07;18.20;85.70
15483;DHT22;7843;50.330;7.312;2023-05-10T11:18:17;17.90;91.00
15483;DHT22;7843;50.330;7.312;2023-05-10T11:20:55;17.80;90.70
15483;DHT22;7843;50.330;7.312;2023-05-10T11:23:22;17.70;92.80
15483;DHT22;7843;50.330;7.312;2023-05-10T11:25:49;17.50;88.60
15483;DHT22;7843;50.330;7.312;2023-05-10T11:28:17;17.20;89.90
15483;DHT22;7843;50.330;7.312;2023-05-10T11:30:45;17.00;92.80
15483;DHT22;7843;50.330;7.312;2023-05-10T11:33:17;16.90;90.60
15483;DHT22;7843;50.330;7.312;2023-05-10T11:35:44;16.80;90.80
15483;DHT22;7843;50.330;7.312;2023-05-10T11:38:12;16.80;92.70
15483;DHT22;7843;50.330;7.312;2023-05-10T11:40:40;16.70;92.00
15483;DHT22;7843;50.330;7.312;2023-05-10T11:43:09;16.70;91.70
15483;DHT22;7843;50.330;7.312;2023-05-10T11:45:36;16.70;94.80
15483;DHT22;7843;50.330;7.312;2023-05-10T11:48:03;16.60;91.60
15483;DHT22;7843;50.330;7.312;2023-05-10T11:50:30;16.80;94.70
15483;DHT22;7843;50.330;7.312;2023-05-10T11:52:57;17.10;92.50
15483;DHT22;7843;50.330;7.312;2023-05-10T11:55:25;17.50;94.00
15483;DHT22;7843;50.330;7.312;2023-05-10T11:57:55;17.90;90.60
15483;DHT22;7843;50.330;7.312;2023-05-10T12:00:21;18.20;90.80
15483;DHT22;7843;50.330;7.312;2023-05-10T12:02:48;18.40;91.70
15483;DHT22;7843;50.330;7.312;2023-05-10T12:05:16;18.40;93.30
15483;DHT22;7843;50.330;7.312;2023-05-10T12:07:42;18.20;89.50
15483;DHT22;7843;50.330;7.312;2023-05-10T12:10:11;17.90;91.10
15483;DHT22;7843;50.330;7.312;2023-05-10T12:12:45;17.80;94.30
15483;DHT22;7843;50.330;7.312;2023-05-10T12:15:24;17.70;95.50
15483;DHT22;7843;50.330;7.312;2023-05-10T12:17:51;17.50;97.80
15483;DHT22;7843;50.330;7.312;2023-05-10T12:20:22;17.30;95.80
15483;DHT22;7843;50.330;7.312;2023-05-10T12:22:54;17.10;96.90
15483;DHT22;7843;50.330;7.312;2023-05-10T12:25:23;17.10;97.90
15483;DHT22;7843;50.330;7.312;2023-05-10T12:27:57;17.00;99.70
15483;DHT22;7843;50.330;7.312;2023-05-10T12:30:26;16.90;99.60
15483;DHT22;7843;50.330;7.312;2023-05-10T12:32:53;16.90;99.90
15483;DHT22;7843;50.330;7.312;2023-05-10T12:35:20;16.90;99.50
15483;DHT22;7843;50.330;7.312;2023-05-10T12:37:48;16.80;99.00
15483;DHT22;7843;50.330;7.312;2023-05-10T12:40:15;16.70;99.90
15483;DHT22;7843;50.330;7.312;2023-05-10T12:42:41;16.50;99.20
15483;DHT22;7843;50.330;7.312;2023-05-10T12:45:10;16.40;98.80
15483;DHT22;7843;50.330;7.312;2023-05-10T12:47:37;16.40;99.90
15483;DHT22;7843;50.330;7.312;2023-05-10T12:50:04;16.50;99.00
15483;DHT22;7843;50.330;7.312;2023-05-10T12:52:32;16.80;99.60
15483;DHT22;7843;50.330;7.312;2023-05-10T12:54:59;17.10;97.80
15483;DHT22;7843;50.330;7.312;2023-05-10T12:57:26;17.20;96.90
15483;DHT22;7843;50.330;7.312;2023-05-10T12:59:54;17.20;95.60
15483;DHT22;7843;50.330;7.312;2023-05-10T13:02:21;17.70;93.90
15483;DHT22;7843;50.330;7.312;2023-05-10T13:04:49;17.90;94.30
15483;DHT22;7843;50.330;7.312;2023-05-10T13:07:16;18.40;93.40
15483;DHT22;7843;50.330;7.312;2023-05-10T13:09:43;20.00;93.70
15483;DHT22;7843;50.330;7.312;2023-05-10T13:12:10;20.10;92.00
15483;DHT22;7843;50.330;7.312;2023-05-10T13:14:36;19.50;91.30
15483;DHT22;7843;50.330;7.312;2023-05-10T13:17:03;19.00;94.00
15483;DHT22;7843;50.330;7.312;2023-05-10T13:19:30;18.60;92.80
15483;DHT22;7843;50.330;7.312;2023-05-10T13:21:57;18.30;94.30
15483;DHT22;7843;50.330;7.312;2023-05-10T13:24:24;18.20;95.00
15483;DHT22;7843;50.330;7.312;2023-05-10T13:26:51;18.30;93.80
15483;DHT22;7843;50.330;7.312;2023-05-10T13:29:17;18.50;95.60
15483;DHT22;7843;50.330;7.312;2023-05-10T13:31:45;18.60;93.60
15483;DHT22;7843;50.330;7.312;2023-05-10T13:34:12;18.40;94.20
15483;DHT22;7843;50.330;7.312;2023-05-10T13:36:39;18.20;92.30
15483;DHT22;7843;50.330;7.312;2023-05-10T13:39:05;18.00;93.10
15483;DHT22;7843;50.330;7.312;2023-05-10T13:41:32;17.90;91.60
15483;DHT22;7843;50.330;7.312;2023-05-10T13:43:59;17.80;90.90
15483;DHT22;7843;50.330;7.312;2023-05-10T13:46:26;17.80;95.60
15483;DHT22;7843;50.330;7.312;2023-05-10T13:48:53;18.60;93.50
15483;DHT22;7843;50.330;7.312;2023-05-10T13:51:19;19.20;93.50
15483;DHT22;7843;50.330;7.312;2023-05-10T13:53:46;19.20;93.70
15483;DHT22;7843;50.330;7.312;2023-05-10T13:56:13;19.20;92.60
15483;DHT22;7843;50.330;7.312;2023-05-10T13:58:41;20.60;91.60
15483;DHT22;7843;50.330;7.312;2023-05-10T14:01:08;22.30;83.10
15483;DHT22;7843;50.330;7.312;2023-05-10T14:03:35;23.90;86.10
15483;DHT22;7843;50.330;7.312;2023-05-10T14:06:02;24.50;79.80
15483;DHT22;7843;50.330;7.312;2023-05-10T14:08:29;25.20;79.00
15483;DHT22;7843;50.330;7.312;2023-05-10T14:10:55;25.50;77.90
15483;DHT22;7843;50.330;7.312;2023-05-10T14:13:23;25.50;74.00
15483;DHT22;7843;50.330;7.312;2023-05-10T14:15:50;25.20;71.40
15483;DHT22;7843;50.330;7.312;2023-05-10T14:18:17;24.70;75.50
15483;DHT22;7843;50.330;7.312;2023-05-10T14:20:44;23.50;73.70
15483;DHT22;7843;50.330;7.312;2023-05-10T14:23:11;22.40;78.90
15483;DHT22;7843;50.330;7.312;2023-05-10T14:25:40;21.30;78.60
15483;DHT22;7843;50.330;7.312;2023-05-10T14:28:06;20.50;79.10
15483;DHT22;7843;50.330;7.312;2023-05-10T14:30:34;20.00;81.40
15483;DHT22;7843;50.330;7.312;2023-05-10T14:33:01;19.70;83.10
15483;DHT22;7843;50.330;7.312;2023-05-10T14:35:29;19.50;85.00
15483;DHT22;7843;50.330;7.312;2023-05-10T14:37:57;19.20;82.90
15483;DHT22;7843;50.330;7.312;2023-05-10T14:40:24;18.80;85.10
15483;DHT22;7843;50.330;7.312;2023-05-10T14:42:51;18.50;85.50
15483;DHT22;7843;50.330;7.312;2023-05-10T14:45:19;18.50;86.70
15483;DHT22;7843;50.330;7.312;2023-05-10T14:47:46;18.60;87.10
15483;DHT22;7843;50.330;7.312;2023-05-10T14:50:13;19.30;84.90
15483;DHT22;7843;50.330;7.312;2023-05-10T14:52:47;19.40;81.40
15483;DHT22;7843;50.330;7.312;2023-05-10T14:55:14;19.40;83.00
15483;DHT22;7843;50.330;7.312;2023-05-10T14:57:41;19.70;81.30
15483;DHT22;7843;50.330;7.312;2023-05-10T15:00:09;20.80;83.10
15483;DHT22;7843;50.330;7.312;2023-05-10T15:02:35;21.40;84.30
15483;DHT22;7843;50.330;7.312;2023-05-10T15:05:03;22.30;79.70
15483;DHT22;7843;50.330;7.312;2023-05-10T15:07:30;22.30;77.80
15483;DHT22;7843;50.330;7.312;2023-05-10T15:09:57;21.70;78.80
15483;DHT22;7843;50.330;7.312;2023-05-10T15:12:24;21.00;77.90
15483;DHT22;7843;50.330;7.312;2023-05-10T15:14:51;20.20;81.10
15483;DHT22;7843;50.330;7.312;2023-05-10T15:17:17;20.10;80.80
15483;DHT22;7843;50.330;7.312;2023-05-10T15:19:44;20.20;81.00
15483;DHT22;7843;50.330;7.312;2023-05-10T15:22:11;20.00;80.20
15483;DHT22;7843;50.330;7.312;2023-05-10T15:24:37;20.50;83.50
15483;DHT22;7843;50.330;7.312;2023-05-10T15:27:04;21.60;79.00
15483;DHT22;7843;50.330;7.312;2023-05-10T15:29:31;22.00;77.80
15483;DHT22;7843;50.330;7.312;2023-05-10T15:32:01;22.70;78.50
15483;DHT22;7843;50.330;7.312;2023-05-10T15:34:29;23.10;71.80
15483;DHT22;7843;50.330;7.312;2023-05-10T15:36:56;23.00;76.60
15483;DHT22;7843;50.330;7.312;2023-05-10T15:39:23;22.50;72.60
15483;DHT22;7843;50.330;7.312;2023-05-10T15:41:50;22.10;76.10
15483;DHT22;7843;50.330;7.312;2023-05-10T15:44:17;22.10;76.10
15483;DHT22;7843;50.330;7.312;2023-05-10T15:46:44;21.90;75.80
15483;DHT22;7843;50.330;7.312;2023-05-10T15:49:11;21.20;77.10
15483;DHT22;7843;50.330;7.312;2023-05-10T15:51:39;21.00;78.20
15483;DHT22;7843;50.330;7.312;2023-05-10T15:54:05;21.30;78.40
15483;DHT22;7843;50.330;7.312;2023-05-10T15:56:33;20.70;76.90
15483;DHT22;7843;50.330;7.312;2023-05-10T15:59:00;20.00;78.80
15483;DHT22;7843;50.330;7.312;2023-05-10T16:01:27;19.70;79.60
15483;DHT22;7843;50.330;7.312;2023-05-10T16:03:54;19.50;83.70
15483;DHT22;7843;50.330;7.312;2023-05-10T16:06:21;19.80;82.80
15483;DHT22;7843;50.330;7.312;2023-05-10T16:08:48;20.30;78.60
15483;DHT22;7843;50.330;7.312;2023-05-10T16:11:14;20.20;79.80
15483;DHT22;7843;50.330;7.312;2023-05-10T16:13:41;20.00;79.10
15483;DHT22;7843;50.330;7.312;2023-05-10T16:16:08;19.70;81.00
15483;DHT22;7843;50.330;7.312;2023-05-10T16:18:34;19.60;84.60
15483;DHT22;7843;50.330;7.312;2023-05-10T16:21:01;19.40;82.60